CheckWX is a tool to help pilots better visualize weather data.  It is not intended as a substitute for an official pre-flight weather briefing.

04:54:34 UTC

KRND METAR
Randolph AFB Airport
Universal City, Texas, USA
Current

59 mins ago

KRND 270356Z AUTO 14004KT 10SM CLR 24/22 A3012 RMK AO2 SLP192 T02430223 $
Observed
Jun-27 @ 03:56 UTC
Wind
  • 140° at 4 KTS
Visibility
10 SM
Flight Rules
VFR
Cloud Levels
  • Clear skies
Temperature
24°C / 75°F
Dewpoint
22°C / 72°F
Humidity
89%
Altimeter
30.12" Hg
Pressure
1020.02 hPa
Previous

2 hours ago

KRND 270256Z AUTO 14007KT 10SM CLR 26/23 A3010 RMK AO2 SLP185 T02560229 52018 $
Observed
Jun-27 @ 02:56 UTC
Wind
  • 140° at 7 KTS
Visibility
10 SM
Flight Rules
VFR
Cloud Levels
  • Clear skies
Temperature
26°C / 79°F
Dewpoint
23°C / 73°F
Humidity
84%
Altimeter
30.1" Hg
Pressure
1019.32 hPa
Previous

3 hours ago

KRND 270156Z AUTO 11005KT 10SM SCT035 26/24 A3008 RMK AO2 SLP178 T02640240 $
Observed
Jun-27 @ 01:56 UTC
Wind
  • 110° at 5 KTS
Visibility
10 SM
Flight Rules
VFR
Cloud Levels
  • Scattered at 3,500' AGL
Temperature
26°C / 79°F
Dewpoint
24°C / 75°F
Humidity
89%
Altimeter
30.08" Hg
Pressure
1018.62 hPa